createdAt,value
2022-09-28T00:01:08.957Z,6.64
2022-09-28T00:03:36.733Z,6.62
2022-09-28T00:06:10.280Z,6.60
2022-09-28T00:08:37.433Z,6.57
2022-09-28T00:11:06.786Z,6.55
2022-09-28T00:13:34.236Z,6.54
2022-09-28T00:16:03.657Z,6.52
2022-09-28T00:18:31.089Z,6.49
2022-09-28T00:21:18.994Z,6.46
2022-09-28T00:24:04.530Z,6.44
2022-09-28T00:26:33.382Z,6.39
2022-09-28T00:29:02.221Z,6.38
2022-09-28T00:31:32.894Z,6.36
2022-09-28T00:34:01.361Z,6.31
2022-09-28T00:36:29.999Z,6.29
2022-09-28T00:38:58.263Z,6.28
2022-09-28T00:41:26.657Z,6.27
2022-09-28T00:44:13.883Z,6.23
2022-09-28T00:46:41.190Z,6.22
2022-09-28T00:49:14.815Z,6.20
2022-09-28T00:51:44.611Z,6.19
2022-09-28T00:54:13.034Z,6.17
2022-09-28T00:56:44.697Z,6.16
2022-09-28T00:59:11.538Z,6.15
2022-09-28T01:01:38.476Z,6.13
2022-09-28T01:04:06.601Z,6.12
2022-09-28T01:06:36.172Z,6.10
2022-09-28T01:09:06.013Z,6.08
2022-09-28T01:11:35.223Z,6.09
2022-09-28T01:14:03.829Z,6.08
2022-09-28T01:16:46.216Z,6.09
2022-09-28T01:19:22.075Z,6.11
2022-09-28T01:22:04.416Z,6.12
2022-09-28T01:24:47.299Z,6.12
2022-09-28T01:27:20.730Z,6.14
2022-09-28T01:30:05.387Z,6.14
2022-09-28T01:32:38.503Z,6.16
2022-09-28T01:35:10.974Z,6.17
2022-09-28T01:37:46.723Z,6.17
2022-09-28T01:40:15.753Z,6.17
2022-09-28T01:42:46.228Z,6.17
2022-09-28T01:45:22.818Z,6.17
2022-09-28T01:47:51.341Z,6.16
2022-09-28T01:50:23.139Z,6.16
2022-09-28T01:53:13.042Z,6.14
2022-09-28T01:55:48.150Z,6.11
2022-09-28T01:58:40.232Z,6.12
2022-09-28T02:01:14.128Z,6.09
2022-09-28T02:04:19.857Z,6.06
2022-09-28T02:06:57.780Z,6.05
2022-09-28T02:09:42.771Z,6.04
2022-09-28T02:12:16.360Z,6.04
2022-09-28T02:14:46.544Z,6.00
2022-09-28T02:17:13.754Z,5.98
2022-09-28T02:19:41.491Z,5.99
2022-09-28T02:22:37.434Z,5.97
2022-09-28T02:25:28.383Z,5.98
2022-09-28T02:28:06.487Z,5.96
2022-09-28T02:30:35.909Z,5.98
2022-09-28T02:33:20.607Z,5.98
2022-09-28T02:35:47.708Z,5.97
2022-09-28T02:38:15.272Z,5.97
2022-09-28T02:40:46.088Z,5.98
2022-09-28T02:43:23.905Z,5.98
2022-09-28T02:46:20.683Z,5.97
2022-09-28T02:49:30.396Z,5.95
2022-09-28T02:52:18.689Z,5.94
2022-09-28T02:55:23.689Z,5.97
2022-09-28T02:58:17.813Z,5.97
2022-09-28T03:01:26.261Z,5.98
2022-09-28T03:04:09.217Z,5.98
2022-09-28T03:07:20.963Z,5.99
2022-09-28T03:10:04.041Z,5.94
2022-09-28T03:12:31.738Z,5.92
2022-09-28T03:15:31.024Z,5.89
2022-09-28T03:17:58.341Z,5.87
2022-09-28T03:20:27.137Z,5.86
2022-09-28T03:23:19.768Z,5.84
2022-09-28T03:25:41.367Z,5.82
2022-09-28T03:28:08.155Z,5.79
2022-09-28T03:30:34.987Z,5.78
2022-09-28T03:33:02.691Z,5.73
2022-09-28T03:35:29.436Z,5.69
2022-09-28T03:37:56.614Z,5.68
2022-09-28T03:40:23.660Z,5.69
2022-09-28T03:42:50.541Z,5.68
2022-09-28T03:45:17.394Z,5.68
2022-09-28T03:47:47.824Z,5.65
2022-09-28T03:50:15.621Z,5.64
2022-09-28T03:52:42.761Z,5.64
2022-09-28T03:55:11.052Z,5.63
2022-09-28T03:57:38.494Z,5.62
2022-09-28T04:00:06.343Z,5.60
2022-09-28T04:02:34.901Z,5.57
2022-09-28T04:05:02.324Z,5.54
2022-09-28T04:07:31.283Z,5.50
2022-09-28T04:09:58.393Z,5.46
2022-09-28T04:12:25.164Z,5.45
2022-09-28T04:14:52.012Z,5.41
2022-09-28T04:17:18.755Z,5.36
2022-09-28T04:19:45.543Z,5.30
2022-09-28T04:22:12.335Z,5.29
2022-09-28T04:24:40.330Z,5.29
2022-09-28T04:27:25.513Z,5.26
2022-09-28T04:29:52.302Z,5.24
2022-09-28T04:32:19.122Z,5.21
2022-09-28T04:34:45.871Z,5.17
2022-09-28T04:37:12.696Z,5.14
2022-09-28T04:39:43.104Z,5.10
2022-09-28T04:42:13.089Z,5.06
2022-09-28T04:44:39.889Z,5.01
2022-09-28T04:47:06.731Z,5.01
2022-09-28T04:49:35.668Z,4.98
2022-09-28T04:52:02.473Z,4.94
2022-09-28T04:54:29.250Z,4.91
2022-09-28T04:56:56.009Z,4.91
2022-09-28T04:59:22.741Z,4.89
2022-09-28T05:01:49.686Z,4.85
2022-09-28T05:04:16.478Z,4.83
2022-09-28T05:06:43.209Z,4.82
2022-09-28T05:09:10.181Z,4.82
2022-09-28T05:11:37.096Z,4.79
2022-09-28T05:14:03.954Z,4.78
2022-09-28T05:16:33.912Z,4.74
2022-09-28T05:19:00.794Z,4.72
2022-09-28T05:21:29.374Z,4.69
2022-09-28T05:23:56.886Z,4.68
2022-09-28T05:26:23.655Z,4.66
2022-09-28T05:28:51.051Z,4.66
2022-09-28T05:31:17.958Z,4.63
2022-09-28T05:33:44.845Z,4.64
2022-09-28T05:36:11.958Z,4.62
2022-09-28T05:38:38.861Z,4.62
2022-09-28T05:41:06.676Z,4.63
2022-09-28T05:43:33.918Z,4.64
2022-09-28T05:46:00.826Z,4.61
2022-09-28T05:48:28.470Z,4.63
2022-09-28T05:50:55.365Z,4.65
2022-09-28T05:53:22.211Z,4.65
2022-09-28T05:55:49.018Z,4.66
2022-09-28T05:58:16.300Z,4.66
2022-09-28T06:00:43.518Z,4.63
2022-09-28T06:03:14.668Z,4.65
2022-09-28T06:05:41.868Z,4.66
2022-09-28T06:08:12.905Z,4.69
2022-09-28T06:10:40.104Z,4.67
2022-09-28T06:13:07.657Z,4.71
2022-09-28T06:15:36.054Z,4.76
2022-09-28T06:18:05.541Z,4.82
2022-09-28T06:20:35.765Z,4.87
2022-09-28T06:23:03.087Z,4.94
2022-09-28T06:25:30.533Z,5.00
2022-09-28T06:28:16.514Z,5.08
2022-09-28T06:30:44.230Z,5.12
2022-09-28T06:33:13.349Z,5.22
2022-09-28T06:35:40.815Z,5.28
2022-09-28T06:38:07.835Z,5.35
2022-09-28T06:40:35.214Z,5.38
2022-09-28T06:43:10.040Z,5.44
2022-09-28T06:45:38.579Z,5.52
2022-09-28T06:48:06.552Z,5.62
2022-09-28T06:50:37.592Z,5.72
2022-09-28T06:53:12.361Z,5.86
2022-09-28T06:55:43.960Z,5.99
2022-09-28T06:58:13.626Z,6.13
2022-09-28T07:00:41.691Z,6.26
2022-09-28T07:03:12.970Z,6.36
2022-09-28T07:05:57.668Z,6.50
2022-09-28T07:08:26.295Z,6.63
2022-09-28T07:10:56.921Z,6.75
2022-09-28T07:13:51.853Z,6.87
2022-09-28T07:16:13.129Z,7.03
2022-09-28T07:18:40.642Z,7.19
2022-09-28T07:21:08.892Z,7.33
2022-09-28T07:23:48.936Z,7.45
2022-09-28T07:26:23.773Z,7.62
2022-09-28T07:28:51.512Z,7.78
2022-09-28T07:31:18.352Z,7.92
2022-09-28T07:33:46.741Z,8.04
2022-09-28T07:36:16.372Z,8.19
2022-09-28T07:38:44.221Z,8.33
2022-09-28T07:41:15.008Z,8.49
2022-09-28T07:43:42.211Z,8.62
2022-09-28T07:46:12.977Z,8.75
2022-09-28T07:48:41.597Z,8.89
2022-09-28T07:51:09.240Z,9.00
2022-09-28T07:53:36.240Z,9.08
2022-09-28T07:56:09.120Z,9.23
2022-09-28T07:58:37.510Z,9.35
2022-09-28T08:01:10.545Z,9.44
2022-09-28T08:03:39.493Z,9.52
2022-09-28T08:06:09.984Z,9.53
2022-09-28T08:08:38.058Z,9.55
2022-09-28T08:11:07.271Z,9.59
2022-09-28T08:13:34.304Z,9.62
2022-09-28T08:16:02.420Z,9.60
2022-09-28T08:18:38.377Z,9.57
2022-09-28T08:21:24.711Z,9.54
2022-09-28T08:23:53.037Z,9.53
2022-09-28T08:26:20.205Z,9.55
2022-09-28T08:28:48.039Z,9.56
2022-09-28T08:31:15.072Z,9.57
2022-09-28T08:33:42.274Z,9.60
2022-09-28T08:36:10.863Z,9.65
2022-09-28T08:38:37.811Z,9.59
2022-09-28T08:41:14.802Z,9.62
2022-09-28T08:43:56.848Z,9.66
2022-09-28T08:46:31.927Z,9.70
2022-09-28T08:49:25.509Z,9.78
2022-09-28T08:51:52.802Z,9.79
2022-09-28T08:54:48.986Z,9.82
2022-09-28T08:57:27.648Z,9.88
2022-09-28T08:59:57.015Z,9.89
2022-09-28T09:02:34.413Z,9.91
2022-09-28T09:05:06.262Z,9.94
2022-09-28T09:07:59.982Z,10.04
2022-09-28T09:10:38.962Z,10.04
2022-09-28T09:13:31.553Z,10.07
2022-09-28T09:16:15.321Z,10.13
2022-09-28T09:18:42.339Z,10.25
2022-09-28T09:21:16.392Z,10.35
2022-09-28T09:23:57.667Z,10.46
2022-09-28T09:26:38.868Z,10.47
2022-09-28T09:29:24.444Z,10.58
2022-09-28T09:32:09.926Z,10.62
2022-09-28T09:34:54.207Z,10.83
2022-09-28T09:37:43.653Z,11.02
2022-09-28T09:40:52.780Z,11.25
2022-09-28T09:43:28.065Z,11.38
2022-09-28T09:46:22.507Z,11.42
2022-09-28T09:49:04.016Z,11.42
2022-09-28T09:51:44.015Z,11.29
2022-09-28T09:54:15.048Z,11.15
2022-09-28T09:57:17.184Z,11.17
2022-09-28T09:59:45.862Z,11.38
2022-09-28T10:02:26.498Z,11.38
2022-09-28T10:04:59.210Z,11.38
2022-09-28T10:07:41.380Z,11.72
2022-09-28T10:10:21.588Z,12.08
2022-09-28T10:12:51.263Z,12.31
2022-09-28T10:15:28.928Z,12.54
2022-09-28T10:17:59.205Z,12.62
2022-09-28T10:20:27.734Z,12.78
2022-09-28T10:22:57.334Z,12.81
2022-09-28T10:25:25.521Z,12.50
2022-09-28T10:27:52.799Z,12.59
2022-09-28T10:30:23.865Z,12.45
2022-09-28T10:32:53.842Z,12.27
2022-09-28T10:35:25.128Z,12.49
2022-09-28T10:37:55.201Z,12.91
2022-09-28T10:40:45.618Z,13.23
2022-09-28T10:43:26.057Z,13.58
2022-09-28T10:46:02.195Z,13.66
2022-09-28T10:48:36.350Z,13.28
2022-09-28T10:51:07.146Z,13.01
2022-09-28T10:53:37.344Z,12.79
2022-09-28T10:56:05.617Z,12.72
2022-09-28T10:58:43.072Z,12.64
2022-09-28T11:01:33.907Z,13.31
2022-09-28T11:04:08.303Z,13.81
2022-09-28T11:06:41.961Z,14.24
2022-09-28T11:09:43.248Z,14.54
2022-09-28T11:12:18.122Z,14.41
2022-09-28T11:14:46.457Z,14.12
2022-09-28T11:17:42.171Z,13.66
2022-09-28T11:20:35.086Z,14.21
2022-09-28T11:23:26.689Z,14.66
2022-09-28T11:26:23.366Z,14.99
2022-09-28T11:28:54.095Z,15.28
2022-09-28T11:31:28.306Z,15.57
2022-09-28T11:34:31.445Z,15.86
2022-09-28T11:37:22.290Z,15.78
2022-09-28T11:39:58.060Z,15.98
2022-09-28T11:43:16.808Z,16.15
2022-09-28T11:46:06.114Z,16.19
2022-09-28T11:48:53.679Z,16.27
2022-09-28T11:51:31.953Z,15.75
2022-09-28T11:54:05.322Z,15.12
2022-09-28T11:56:40.072Z,14.72
2022-09-28T11:59:14.892Z,14.45
2022-09-28T12:01:51.823Z,14.28
2022-09-28T12:04:25.345Z,14.23
2022-09-28T12:07:13.277Z,14.19
2022-09-28T12:09:52.552Z,14.09
2022-09-28T12:12:45.697Z,14.12
2022-09-28T12:16:12.922Z,14.17
2022-09-28T12:21:48.583Z,14.56
2022-09-28T12:24:27.372Z,14.84
2022-09-28T12:27:00.596Z,14.78
2022-09-28T12:29:51.101Z,14.74
2022-09-28T12:32:32.235Z,14.61
2022-09-28T12:34:59.147Z,14.40
2022-09-28T12:37:54.560Z,14.04
2022-09-28T12:40:55.955Z,13.65
2022-09-28T12:43:54.837Z,13.25
2022-09-28T12:46:27.860Z,12.85
2022-09-28T12:49:47.593Z,12.43
2022-09-28T12:51:54.238Z,12.27
2022-09-28T12:54:39.144Z,12.12
2022-09-28T12:57:43.578Z,11.91
2022-09-28T13:00:22.303Z,11.76
2022-09-28T13:03:08.009Z,11.64
2022-09-28T13:05:59.086Z,11.49
2022-09-28T13:08:50.967Z,11.38
2022-09-28T13:11:38.704Z,11.34
2022-09-28T13:14:55.339Z,11.32
2022-09-28T13:17:37.931Z,11.25
2022-09-28T13:20:17.811Z,11.19
2022-09-28T13:23:09.186Z,11.18
2022-09-28T13:25:41.111Z,11.17
2022-09-28T13:28:08.514Z,11.19
2022-09-28T13:30:38.935Z,11.26
2022-09-28T13:33:10.857Z,11.36
2022-09-28T13:35:43.431Z,11.47
2022-09-28T13:38:19.097Z,11.59
2022-09-28T13:41:04.232Z,11.72
2022-09-28T13:44:13.254Z,11.91
2022-09-28T13:47:08.716Z,12.23
2022-09-28T13:50:04.846Z,12.56
2022-09-28T13:52:57.750Z,12.95
2022-09-28T13:55:43.225Z,13.29
2022-09-28T13:58:27.933Z,13.53
2022-09-28T14:01:09.111Z,13.73
2022-09-28T14:04:12.163Z,13.97
2022-09-28T14:06:48.683Z,14.03
2022-09-28T14:09:27.446Z,14.04
2022-09-28T14:12:00.232Z,14.19
2022-09-28T14:14:46.012Z,14.17
2022-09-28T14:17:21.724Z,14.09
2022-09-28T14:20:01.493Z,13.86
2022-09-28T14:22:53.663Z,13.52
2022-09-28T14:25:25.040Z,13.25
2022-09-28T14:28:10.341Z,13.08
2022-09-28T14:30:43.029Z,12.90
2022-09-28T14:33:20.409Z,12.78
2022-09-28T14:36:07.841Z,12.70
2022-09-28T14:39:03.667Z,12.62
2022-09-28T14:41:36.707Z,12.48
2022-09-28T14:44:11.414Z,12.33
2022-09-28T14:46:41.251Z,12.21
2022-09-28T14:49:17.671Z,12.16
2022-09-28T14:51:57.003Z,11.99
2022-09-28T14:54:26.844Z,11.90
2022-09-28T14:56:53.759Z,11.87
2022-09-28T14:59:22.671Z,11.76
2022-09-28T15:02:45.136Z,11.72
2022-09-28T15:05:20.196Z,11.63
2022-09-28T15:07:52.755Z,11.54
2022-09-28T15:10:33.797Z,11.52
2022-09-28T15:13:06.730Z,11.46
2022-09-28T15:15:47.263Z,11.43
2022-09-28T15:18:44.018Z,11.40
2022-09-28T15:21:12.608Z,11.40
2022-09-28T15:23:44.428Z,11.39
2022-09-28T15:26:29.142Z,11.34
2022-09-28T15:28:56.145Z,11.34
2022-09-28T15:31:26.503Z,11.35
2022-09-28T15:34:12.913Z,11.33
2022-09-28T15:36:39.760Z,11.33
2022-09-28T15:39:14.751Z,11.31
2022-09-28T15:41:48.313Z,11.29
2022-09-28T15:44:33.126Z,11.34
2022-09-28T15:47:25.760Z,11.31
2022-09-28T15:50:03.611Z,11.25
2022-09-28T15:52:43.646Z,11.24
2022-09-28T15:55:30.850Z,11.19
2022-09-28T15:58:17.422Z,11.17
2022-09-28T16:00:46.822Z,11.13
2022-09-28T16:03:22.298Z,11.16
2022-09-28T16:06:05.731Z,11.24
2022-09-28T16:08:44.234Z,11.29
2022-09-28T16:11:26.386Z,11.28
2022-09-28T16:14:06.430Z,11.26
2022-09-28T16:16:43.276Z,11.26
2022-09-28T16:19:28.809Z,11.20
2022-09-28T16:22:00.225Z,11.18
2022-09-28T16:24:30.645Z,11.13
2022-09-28T16:27:08.335Z,11.12
2022-09-28T16:29:38.303Z,11.12
2022-09-28T16:32:24.774Z,11.14
2022-09-28T16:35:12.590Z,11.11
2022-09-28T16:37:42.923Z,11.09
2022-09-28T16:40:11.047Z,11.04
2022-09-28T16:42:40.229Z,10.99
2022-09-28T16:45:13.982Z,10.93
2022-09-28T16:47:41.037Z,10.88
2022-09-28T16:50:10.812Z,10.81
2022-09-28T16:52:59.879Z,10.75
2022-09-28T16:55:40.211Z,10.68
2022-09-28T16:58:08.570Z,10.64
2022-09-28T17:00:36.475Z,10.59
2022-09-28T17:03:13.255Z,10.52
2022-09-28T17:05:40.311Z,10.48
2022-09-28T17:08:11.380Z,10.42
2022-09-28T17:11:02.507Z,10.36
2022-09-28T17:13:36.366Z,10.28
2022-09-28T17:16:11.592Z,10.21
2022-09-28T17:18:40.204Z,10.15
2022-09-28T17:21:12.355Z,10.07
2022-09-28T17:23:39.344Z,9.99
2022-09-28T17:26:06.561Z,9.93
2022-09-28T17:28:35.925Z,9.85
2022-09-28T17:31:04.341Z,9.79
2022-09-28T17:33:31.390Z,9.73
2022-09-28T17:36:01.716Z,9.68
2022-09-28T17:38:28.852Z,9.61
2022-09-28T17:40:55.778Z,9.56
2022-09-28T17:43:22.664Z,9.52
2022-09-28T17:45:50.545Z,9.49
2022-09-28T17:48:23.109Z,9.43
2022-09-28T17:50:50.912Z,9.36
2022-09-28T17:53:18.240Z,9.32
2022-09-28T17:55:45.366Z,9.26
2022-09-28T17:58:21.049Z,9.21
2022-09-28T18:00:49.970Z,9.15
2022-09-28T18:03:20.157Z,9.09
2022-09-28T18:05:49.899Z,9.03
2022-09-28T18:08:21.321Z,8.99
2022-09-28T18:10:48.222Z,8.94
2022-09-28T18:13:15.452Z,8.87
2022-09-28T18:15:42.821Z,8.82
2022-09-28T18:18:09.974Z,8.77
2022-09-28T18:20:37.803Z,8.73
2022-09-28T18:23:05.380Z,8.69
2022-09-28T18:25:32.187Z,8.64
2022-09-28T18:28:00.233Z,8.61
2022-09-28T18:30:28.119Z,8.55
2022-09-28T18:32:55.457Z,8.51
2022-09-28T18:35:23.357Z,8.46
2022-09-28T18:37:51.110Z,8.39
2022-09-28T18:40:18.345Z,8.38
2022-09-28T18:42:45.167Z,8.33
2022-09-28T18:45:12.120Z,8.31
2022-09-28T18:47:40.219Z,8.32
2022-09-28T18:50:07.532Z,8.27
2022-09-28T18:52:39.273Z,8.25
2022-09-28T18:55:07.935Z,8.25
2022-09-28T18:57:35.225Z,8.27
2022-09-28T19:00:05.145Z,8.24
2022-09-28T19:02:32.270Z,8.22
2022-09-28T19:04:59.296Z,8.17
2022-09-28T19:07:26.388Z,8.17
2022-09-28T19:09:53.424Z,8.14
2022-09-28T19:12:20.523Z,8.11
2022-09-28T19:14:47.338Z,8.09
2022-09-28T19:17:14.167Z,8.08
2022-09-28T19:19:42.796Z,8.08
2022-09-28T19:22:09.667Z,8.07
2022-09-28T19:24:36.412Z,8.03
2022-09-28T19:27:03.227Z,8.00
2022-09-28T19:29:29.954Z,7.97
2022-09-28T19:31:57.326Z,7.96
2022-09-28T19:34:30.205Z,7.92
2022-09-28T19:36:57.376Z,7.89
2022-09-28T19:39:24.197Z,7.89
2022-09-28T19:41:54.455Z,7.85
2022-09-28T19:44:27.076Z,7.83
2022-09-28T19:47:10.170Z,7.82
2022-09-28T19:49:39.734Z,7.79
2022-09-28T19:52:13.841Z,7.78
2022-09-28T19:55:00.081Z,7.76
2022-09-28T19:57:32.720Z,7.74
2022-09-28T20:00:03.441Z,7.71
2022-09-28T20:02:31.123Z,7.73
2022-09-28T20:04:58.098Z,7.73
2022-09-28T20:07:25.089Z,7.70
2022-09-28T20:09:51.894Z,7.69
2022-09-28T20:12:19.066Z,7.67
2022-09-28T20:14:46.003Z,7.65
2022-09-28T20:17:12.988Z,7.62
2022-09-28T20:19:39.904Z,7.62
2022-09-28T20:22:06.831Z,7.59
2022-09-28T20:24:34.066Z,7.56
2022-09-28T20:27:01.653Z,7.55
2022-09-28T20:29:29.379Z,7.52
2022-09-28T20:31:56.855Z,7.50
2022-09-28T20:34:23.831Z,7.46
2022-09-28T20:36:50.627Z,7.46
2022-09-28T20:39:17.520Z,7.45
2022-09-28T20:41:46.210Z,7.42
2022-09-28T20:44:13.118Z,7.40
2022-09-28T20:46:39.904Z,7.38
2022-09-28T20:49:07.835Z,7.36
2022-09-28T20:51:35.036Z,7.34
2022-09-28T20:54:01.898Z,7.30
2022-09-28T20:56:38.908Z,7.29
2022-09-28T20:59:11.681Z,7.28
2022-09-28T21:01:38.628Z,7.26
2022-09-28T21:04:07.164Z,7.22
2022-09-28T21:06:36.236Z,7.18
2022-09-28T21:09:05.049Z,7.18
2022-09-28T21:11:34.400Z,7.15
2022-09-28T21:14:03.329Z,7.11
2022-09-28T21:16:32.556Z,7.03
2022-09-28T21:18:59.898Z,7.01
2022-09-28T21:21:27.042Z,6.97
2022-09-28T21:23:55.263Z,6.93
2022-09-28T21:26:27.103Z,6.86
2022-09-28T21:29:10.867Z,6.78
2022-09-28T21:31:45.750Z,6.77
2022-09-28T21:34:14.049Z,6.73
2022-09-28T21:36:43.436Z,6.72
2022-09-28T21:39:10.678Z,6.70
2022-09-28T21:41:37.785Z,6.69
2022-09-28T21:44:05.237Z,6.68
2022-09-28T21:46:34.863Z,6.66
2022-09-28T21:49:02.662Z,6.65
2022-09-28T21:51:30.079Z,6.62
2022-09-28T21:53:57.222Z,6.60
2022-09-28T21:56:24.196Z,6.57
2022-09-28T21:58:51.220Z,6.55
2022-09-28T22:01:23.610Z,6.51
2022-09-28T22:03:53.871Z,6.49
2022-09-28T22:06:23.165Z,6.49
2022-09-28T22:08:50.597Z,6.47
2022-09-28T22:11:20.040Z,6.42
2022-09-28T22:13:49.947Z,6.43
2022-09-28T22:16:19.463Z,6.38
2022-09-28T22:18:47.110Z,6.37
2022-09-28T22:21:16.936Z,6.35
2022-09-28T22:23:44.339Z,6.33
2022-09-28T22:26:20.791Z,6.29
2022-09-28T22:28:52.885Z,6.27
2022-09-28T22:31:22.790Z,6.25
2022-09-28T22:33:49.973Z,6.25
2022-09-28T22:36:17.165Z,6.25
2022-09-28T22:38:44.926Z,6.19
2022-09-28T22:41:12.739Z,6.18
2022-09-28T22:43:39.525Z,6.13
2022-09-28T22:46:11.949Z,6.11
2022-09-28T22:48:39.297Z,6.05
2022-09-28T22:51:06.952Z,6.05
2022-09-28T22:53:34.842Z,6.05
2022-09-28T22:56:06.119Z,6.03
2022-09-28T22:58:36.791Z,6.00
2022-09-28T23:01:24.611Z,5.98
2022-09-28T23:03:52.884Z,5.95
2022-09-28T23:06:22.014Z,5.90
2022-09-28T23:08:51.080Z,5.87
2022-09-28T23:11:18.726Z,5.84
2022-09-28T23:13:50.785Z,5.79
2022-09-28T23:16:18.651Z,5.77
2022-09-28T23:18:46.245Z,5.76
2022-09-28T23:21:17.906Z,5.74
2022-09-28T23:23:45.909Z,5.72
2022-09-28T23:26:18.369Z,5.70
2022-09-28T23:28:46.059Z,5.64
2022-09-28T23:31:18.919Z,5.62
2022-09-28T23:33:46.129Z,5.57
2022-09-28T23:36:13.129Z,5.56
2022-09-28T23:38:40.027Z,5.50
2022-09-28T23:41:07.457Z,5.47
2022-09-28T23:43:34.818Z,5.45
2022-09-28T23:46:02.062Z,5.46
2022-09-28T23:48:29.229Z,5.43
2022-09-28T23:50:56.078Z,5.40
2022-09-28T23:53:22.926Z,5.34
2022-09-28T23:55:49.673Z,5.32
2022-09-28T23:58:16.764Z,5.30
